createdAt,value
2023-04-02T00:01:16.376Z,1.37
2023-04-02T00:03:43.895Z,1.07
2023-04-02T00:06:30.015Z,1.20
2023-04-02T00:08:59.498Z,1.40
2023-04-02T00:11:33.158Z,1.30
2023-04-02T00:14:02.050Z,1.13
2023-04-02T00:16:29.467Z,1.37
2023-04-02T00:19:00.436Z,1.10
2023-04-02T00:21:39.898Z,1.47
2023-04-02T00:24:21.939Z,1.67
2023-04-02T00:26:51.689Z,1.40
2023-04-02T00:29:19.441Z,1.60
2023-04-02T00:31:49.616Z,1.50
2023-04-02T00:34:28.870Z,1.43
2023-04-02T00:36:56.054Z,1.30
2023-04-02T00:39:26.256Z,1.60
2023-04-02T00:42:07.761Z,1.60
2023-04-02T00:44:44.313Z,1.47
2023-04-02T00:47:24.447Z,1.27
2023-04-02T00:50:01.170Z,1.67
2023-04-02T00:52:30.567Z,1.40
2023-04-02T00:55:14.900Z,1.43
2023-04-02T00:57:44.873Z,1.20
2023-04-02T01:00:29.277Z,1.40
2023-04-02T01:03:18.107Z,1.30
2023-04-02T01:05:51.519Z,1.10
2023-04-02T01:08:43.724Z,1.20
2023-04-02T01:11:13.250Z,1.30
2023-04-02T01:14:02.342Z,1.50
2023-04-02T01:16:54.198Z,2.00
2023-04-02T01:19:50.412Z,1.30
2023-04-02T01:22:30.831Z,1.57
2023-04-02T01:24:58.429Z,1.33
2023-04-02T01:27:30.674Z,1.40
2023-04-02T01:30:00.267Z,1.30
2023-04-02T01:32:30.013Z,1.20
2023-04-02T01:34:58.240Z,1.30
2023-04-02T01:37:59.246Z,1.40
2023-04-02T01:40:53.483Z,1.37
2023-04-02T01:43:39.898Z,1.27
2023-04-02T01:46:34.145Z,1.27
2023-04-02T01:49:04.530Z,1.20
2023-04-02T01:51:39.241Z,1.20
2023-04-02T01:54:07.651Z,1.10
2023-04-02T01:56:35.607Z,1.33
2023-04-02T01:59:05.906Z,1.27
2023-04-02T02:01:42.843Z,1.10
2023-04-02T02:04:13.886Z,1.37
2023-04-02T02:06:40.988Z,1.10
2023-04-02T02:09:12.423Z,0.93
2023-04-02T02:11:39.293Z,1.30
2023-04-02T02:14:13.992Z,1.10
2023-04-02T02:16:44.039Z,1.00
2023-04-02T02:19:31.260Z,1.10
2023-04-02T02:22:28.445Z,1.50
2023-04-02T02:24:57.483Z,0.97
2023-04-02T02:27:24.186Z,1.10
2023-04-02T02:30:21.066Z,1.20
2023-04-02T02:33:16.361Z,0.70
2023-04-02T02:35:45.116Z,1.03
2023-04-02T02:38:27.208Z,1.10
2023-04-02T02:41:00.630Z,1.20
2023-04-02T02:43:28.506Z,1.10
2023-04-02T02:45:57.459Z,1.10
2023-04-02T02:48:37.083Z,0.90
2023-04-02T02:51:09.081Z,1.00
2023-04-02T02:53:48.285Z,1.40
2023-04-02T02:56:15.806Z,1.30
2023-04-02T02:58:43.250Z,1.27
2023-04-02T03:01:10.613Z,1.13
2023-04-02T03:03:38.764Z,1.23
2023-04-02T03:06:13.795Z,1.17
2023-04-02T03:08:46.512Z,1.30
2023-04-02T03:11:33.054Z,1.43
2023-04-02T03:14:13.937Z,1.03
2023-04-02T03:16:45.532Z,1.50
2023-04-02T03:19:43.054Z,1.20
2023-04-02T03:22:32.192Z,1.20
2023-04-02T03:25:22.854Z,1.23
2023-04-02T03:27:55.902Z,1.50
2023-04-02T03:30:30.814Z,1.53
2023-04-02T03:33:04.035Z,1.60
2023-04-02T03:35:59.777Z,1.50
2023-04-02T03:38:31.665Z,2.03
2023-04-02T03:41:01.581Z,1.77
2023-04-02T03:43:37.299Z,2.10
2023-04-02T03:46:22.437Z,2.03
2023-04-02T03:48:56.678Z,2.23
2023-04-02T03:52:02.664Z,2.63
2023-04-02T03:54:29.828Z,2.30
2023-04-02T03:56:57.724Z,2.33
2023-04-02T03:59:50.447Z,2.47
2023-04-02T04:02:26.808Z,2.33
2023-04-02T04:04:55.697Z,2.30
2023-04-02T04:07:32.813Z,2.67
2023-04-02T04:10:01.472Z,2.60
2023-04-02T04:12:40.344Z,2.50
2023-04-02T04:15:16.893Z,2.63
2023-04-02T04:18:10.641Z,3.17
2023-04-02T04:20:47.854Z,2.50
2023-04-02T04:23:30.353Z,2.40
2023-04-02T04:26:19.944Z,2.80
2023-04-02T04:29:09.752Z,2.77
2023-04-02T04:31:46.826Z,2.83
2023-04-02T04:34:22.843Z,2.50
2023-04-02T04:36:57.437Z,2.87
2023-04-02T04:39:44.572Z,3.03
2023-04-02T04:42:21.113Z,3.00
2023-04-02T04:45:00.698Z,2.53
2023-04-02T04:47:36.847Z,3.00
2023-04-02T04:50:12.072Z,2.50
2023-04-02T04:52:40.994Z,2.90
2023-04-02T04:55:34.931Z,2.63
2023-04-02T04:58:18.758Z,3.03
2023-04-02T05:01:00.449Z,2.70
2023-04-02T05:03:35.924Z,2.70
2023-04-02T05:06:32.327Z,2.67
2023-04-02T05:09:05.993Z,2.40
2023-04-02T05:11:39.950Z,2.97
2023-04-02T05:14:38.735Z,2.67
2023-04-02T05:17:13.497Z,3.03
2023-04-02T05:19:47.256Z,3.07
2023-04-02T05:22:35.501Z,3.10
2023-04-02T05:25:25.418Z,3.17
2023-04-02T05:28:02.833Z,3.10
2023-04-02T05:30:29.596Z,3.27
2023-04-02T05:33:21.972Z,3.47
2023-04-02T05:35:53.411Z,3.17
2023-04-02T05:38:28.003Z,3.40
2023-04-02T05:41:11.792Z,3.73
2023-04-02T05:43:44.007Z,3.30
2023-04-02T05:46:21.295Z,3.47
2023-04-02T05:48:56.681Z,3.60
2023-04-02T05:51:36.779Z,3.90
2023-04-02T05:54:06.998Z,3.60
2023-04-02T05:56:43.963Z,3.53
2023-04-02T05:59:20.545Z,3.67
2023-04-02T06:01:53.518Z,3.70
2023-04-02T06:04:47.255Z,3.43
2023-04-02T06:07:25.778Z,3.57
2023-04-02T06:10:20.680Z,3.17
2023-04-02T06:13:03.185Z,3.70
2023-04-02T06:15:31.703Z,4.10
2023-04-02T06:18:08.900Z,3.60
2023-04-02T06:20:35.992Z,3.60
2023-04-02T06:23:13.716Z,3.93
2023-04-02T06:25:46.217Z,4.50
2023-04-02T06:28:17.996Z,3.80
2023-04-02T06:30:45.814Z,3.73
2023-04-02T06:33:13.011Z,4.13
2023-04-02T06:35:41.909Z,3.80
2023-04-02T06:38:18.924Z,3.90
2023-04-02T06:41:08.452Z,4.00
2023-04-02T06:43:43.803Z,4.33
2023-04-02T06:46:28.308Z,4.03
2023-04-02T06:49:19.963Z,4.03
2023-04-02T06:51:48.982Z,3.37
2023-04-02T06:54:17.942Z,3.90
2023-04-02T06:56:49.142Z,4.17
2023-04-02T06:59:16.831Z,3.80
2023-04-02T07:01:46.328Z,3.20
2023-04-02T07:04:13.319Z,4.07
2023-04-02T07:06:40.088Z,3.47
2023-04-02T07:09:07.254Z,3.90
2023-04-02T07:11:34.706Z,3.70
2023-04-02T07:14:01.512Z,3.57
2023-04-02T07:16:31.298Z,3.40
2023-04-02T07:19:02.994Z,3.43
2023-04-02T07:21:30.274Z,3.37
2023-04-02T07:23:57.622Z,3.57
2023-04-02T07:26:27.355Z,3.20
2023-04-02T07:28:56.134Z,3.53
2023-04-02T07:31:24.492Z,3.63
2023-04-02T07:33:52.639Z,4.17
2023-04-02T07:36:21.978Z,3.87
2023-04-02T07:38:49.252Z,2.80
2023-04-02T07:41:16.637Z,3.10
2023-04-02T07:43:43.762Z,2.10
2023-04-02T07:46:11.604Z,2.20
2023-04-02T07:48:39.133Z,2.47
2023-04-02T07:51:05.963Z,1.90
2023-04-02T07:53:35.845Z,2.30
2023-04-02T07:56:03.650Z,2.20
2023-04-02T07:58:32.040Z,2.00
2023-04-02T08:01:00.277Z,2.17
2023-04-02T08:03:27.928Z,1.90
2023-04-02T08:05:56.745Z,3.63
2023-04-02T08:08:24.849Z,1.80
2023-04-02T08:10:51.854Z,1.53
2023-04-02T08:13:19.062Z,2.57
2023-04-02T08:15:45.968Z,3.87
2023-04-02T08:18:12.947Z,3.63
2023-04-02T08:20:39.890Z,1.70
2023-04-02T08:23:15.532Z,1.27
2023-04-02T08:25:42.531Z,1.40
2023-04-02T08:28:09.416Z,1.10
2023-04-02T08:30:36.541Z,1.23
2023-04-02T08:33:04.301Z,1.30
2023-04-02T08:35:31.502Z,1.90
2023-04-02T08:37:58.798Z,2.23
2023-04-02T08:40:33.880Z,2.20
2023-04-02T08:43:15.187Z,1.30
2023-04-02T08:45:59.178Z,2.10
2023-04-02T08:48:26.105Z,1.10
2023-04-02T08:50:53.133Z,0.80
2023-04-02T08:53:24.628Z,0.83
2023-04-02T08:56:08.495Z,1.20
2023-04-02T08:58:54.338Z,1.60
2023-04-02T09:01:34.873Z,1.00
2023-04-02T09:04:03.422Z,0.60
2023-04-02T09:06:30.384Z,0.73
2023-04-02T09:08:58.531Z,0.73
2023-04-02T09:11:32.245Z,0.60
2023-04-02T09:14:03.216Z,0.63
2023-04-02T09:16:51.064Z,0.70
2023-04-02T09:19:25.336Z,0.30
2023-04-02T09:21:58.231Z,0.47
2023-04-02T09:24:25.082Z,0.50
2023-04-02T09:26:51.940Z,0.50
2023-04-02T09:29:43.322Z,0.30
2023-04-02T09:32:53.374Z,0.40
2023-04-02T09:35:26.546Z,0.30
2023-04-02T09:38:12.569Z,0.23
2023-04-02T09:40:59.857Z,0.37
2023-04-02T09:43:37.791Z,0.43
2023-04-02T09:46:13.763Z,0.40
2023-04-02T09:48:43.974Z,0.50
2023-04-02T09:51:18.316Z,0.30
2023-04-02T09:53:49.064Z,0.10
2023-04-02T09:56:22.988Z,0.20
2023-04-02T09:59:22.271Z,0.20
2023-04-02T10:01:55.716Z,0.10
2023-04-02T10:04:39.220Z,0.20
2023-04-02T10:07:06.823Z,0.20
2023-04-02T10:09:37.188Z,0.20
2023-04-02T10:12:13.739Z,0.30
2023-04-02T10:14:44.616Z,0.20
2023-04-02T10:17:24.198Z,0.10
2023-04-02T10:19:58.692Z,0.30
2023-04-02T10:22:28.349Z,0.10
2023-04-02T10:24:55.380Z,0.23
2023-04-02T10:27:25.666Z,0.27
2023-04-02T10:30:11.059Z,0.40
2023-04-02T10:32:44.352Z,0.50
2023-04-02T10:35:36.561Z,0.70
2023-04-02T10:38:28.471Z,0.40
2023-04-02T10:40:59.714Z,0.50
2023-04-02T10:43:51.543Z,0.40
2023-04-02T10:46:43.713Z,0.40
2023-04-02T10:49:40.969Z,0.40
2023-04-02T10:52:21.580Z,0.53
2023-04-02T10:54:57.255Z,0.57
2023-04-02T10:57:33.161Z,0.40
2023-04-02T11:00:30.985Z,0.47
2023-04-02T11:03:09.864Z,0.43
2023-04-02T11:05:46.012Z,0.37
2023-04-02T11:08:26.634Z,0.47
2023-04-02T11:11:07.955Z,0.60
2023-04-02T11:13:52.525Z,0.50
2023-04-02T11:16:19.559Z,0.40
2023-04-02T11:19:14.386Z,0.60
2023-04-02T11:22:02.005Z,0.50
2023-04-02T11:24:30.219Z,0.50
2023-04-02T11:27:14.315Z,0.40
2023-04-02T11:29:59.462Z,0.50
2023-04-02T11:32:33.352Z,0.60
2023-04-02T11:35:07.466Z,1.20
2023-04-02T11:37:45.150Z,0.40
2023-04-02T11:40:12.071Z,0.50
2023-04-02T11:42:47.025Z,0.60
2023-04-02T11:45:23.167Z,0.50
2023-04-02T11:48:03.802Z,0.50
2023-04-02T11:50:36.502Z,0.40
2023-04-02T11:53:12.372Z,0.67
2023-04-02T11:55:41.700Z,0.70
2023-04-02T11:58:34.743Z,0.50
2023-04-02T12:01:19.630Z,0.40
2023-04-02T12:04:32.517Z,0.20
2023-04-02T12:07:34.694Z,0.37
2023-04-02T12:10:18.033Z,0.37
2023-04-02T12:12:44.893Z,0.50
2023-04-02T12:15:45.163Z,0.23
2023-04-02T12:18:22.842Z,0.37
2023-04-02T12:20:57.892Z,0.47
2023-04-02T12:23:32.069Z,0.40
2023-04-02T12:26:00.080Z,0.50
2023-04-02T12:28:28.946Z,0.20
2023-04-02T12:31:06.062Z,0.33
2023-04-02T12:33:41.309Z,0.40
2023-04-02T12:36:18.371Z,0.20
2023-04-02T12:38:49.988Z,0.30
2023-04-02T12:41:32.167Z,0.10
2023-04-02T12:44:11.641Z,0.37
2023-04-02T12:46:39.818Z,0.30
2023-04-02T12:49:26.478Z,0.33
2023-04-02T12:51:54.453Z,0.40
2023-04-02T12:54:21.695Z,0.30
2023-04-02T12:56:49.458Z,0.30
2023-04-02T12:59:36.397Z,0.30
2023-04-02T13:02:16.915Z,0.40
2023-04-02T13:04:48.870Z,0.73
2023-04-02T13:07:21.539Z,0.40
2023-04-02T13:09:53.571Z,0.40
2023-04-02T13:12:27.693Z,0.40
2023-04-02T13:14:56.863Z,0.50
2023-04-02T13:18:13.997Z,0.60
2023-04-02T13:20:42.323Z,0.70
2023-04-02T13:23:30.372Z,0.30
2023-04-02T13:26:01.662Z,0.50
2023-04-02T13:28:29.289Z,0.60
2023-04-02T13:30:56.242Z,0.60
2023-04-02T13:33:23.150Z,0.73
2023-04-02T13:35:50.079Z,0.20
2023-04-02T13:38:16.916Z,0.30
2023-04-02T13:40:43.654Z,0.20
2023-04-02T13:43:19.409Z,0.30
2023-04-02T13:45:53.290Z,0.40
2023-04-02T13:48:20.439Z,0.10
2023-04-02T13:50:47.355Z,0.20
2023-04-02T13:53:24.998Z,0.10
2023-04-02T13:55:52.596Z,0.40
2023-04-02T13:58:19.524Z,0.20
2023-04-02T14:00:47.185Z,0.20
2023-04-02T14:03:19.541Z,0.20
2023-04-02T14:06:09.844Z,0.10
2023-04-02T14:08:51.590Z,0.10
2023-04-02T14:11:37.184Z,0.10
2023-04-02T14:14:42.689Z,0.20
2023-04-02T14:17:28.235Z,0.67
2023-04-02T14:20:08.617Z,0.20
2023-04-02T14:22:56.925Z,0.30
2023-04-02T14:25:43.322Z,0.40
2023-04-02T14:28:23.736Z,0.40
2023-04-02T14:31:05.642Z,0.47
2023-04-02T14:33:41.258Z,0.20
2023-04-02T14:36:16.575Z,0.13
2023-04-02T14:39:28.448Z,0.30
2023-04-02T14:41:59.769Z,0.50
2023-04-02T14:44:32.666Z,0.40
2023-04-02T14:47:10.798Z,0.50
2023-04-02T14:49:43.269Z,0.30
2023-04-02T14:52:20.675Z,0.40
2023-04-02T14:54:59.587Z,0.23
2023-04-02T14:57:51.264Z,0.40
2023-04-02T15:00:52.116Z,0.30
2023-04-02T15:03:24.354Z,0.47
2023-04-02T15:06:01.633Z,0.33
2023-04-02T15:08:42.064Z,0.40
2023-04-02T15:11:11.625Z,0.20
2023-04-02T15:14:07.311Z,0.10
2023-04-02T15:16:36.353Z,0.10
2023-04-02T15:19:09.915Z,0.10
2023-04-02T15:24:35.011Z,0.17
2023-04-02T15:27:24.868Z,0.30
2023-04-02T15:29:58.632Z,0.20
2023-04-02T15:32:34.533Z,0.20
2023-04-02T15:35:27.075Z,0.20
2023-04-02T15:38:16.917Z,0.20
2023-04-02T15:40:56.062Z,0.20
2023-04-02T15:43:41.721Z,0.10
2023-04-02T15:46:30.232Z,0.10
2023-04-02T15:49:30.932Z,0.10
2023-04-02T15:51:57.714Z,0.20
2023-04-02T15:54:30.886Z,0.20
2023-04-02T15:57:09.758Z,0.17
2023-04-02T15:59:47.394Z,0.10
2023-04-02T16:02:37.589Z,0.10
2023-04-02T16:05:23.136Z,0.10
2023-04-02T16:07:55.634Z,0.20
2023-04-02T16:10:40.183Z,0.20
2023-04-02T16:13:19.039Z,0.20
2023-04-02T16:15:55.984Z,0.30
2023-04-02T16:18:36.382Z,0.30
2023-04-02T16:21:04.157Z,0.30
2023-04-02T16:23:37.000Z,0.20
2023-04-02T16:26:15.944Z,0.30
2023-04-02T16:29:10.287Z,0.40
2023-04-02T16:31:55.870Z,0.27
2023-04-02T16:34:31.508Z,0.20
2023-04-02T16:37:12.119Z,0.30
2023-04-02T16:40:16.735Z,0.50
2023-04-02T16:42:58.398Z,0.70
2023-04-02T16:45:43.241Z,0.50
2023-04-02T16:48:32.792Z,0.90
2023-04-02T16:51:21.422Z,0.70
2023-04-02T16:54:11.392Z,1.47
2023-04-02T16:56:41.257Z,1.00
2023-04-02T16:59:35.122Z,0.60
2023-04-02T17:02:01.854Z,1.30
2023-04-02T17:04:53.561Z,0.30
2023-04-02T17:07:50.886Z,0.40
2023-04-02T17:10:24.812Z,0.60
2023-04-02T17:12:59.113Z,0.40
2023-04-02T17:15:28.816Z,0.47
2023-04-02T17:18:00.993Z,0.63
2023-04-02T17:20:28.215Z,0.23
2023-04-02T17:22:56.229Z,0.40
2023-04-02T17:25:31.493Z,0.60
2023-04-02T17:27:58.348Z,0.37
2023-04-02T17:30:37.435Z,0.60
2023-04-02T17:33:16.233Z,0.67
2023-04-02T17:36:09.455Z,0.70
2023-04-02T17:38:45.486Z,0.60
2023-04-02T17:41:40.320Z,1.00
2023-04-02T17:44:34.985Z,0.60
2023-04-02T17:47:19.360Z,1.00
2023-04-02T17:50:08.229Z,1.00
2023-04-02T17:52:59.704Z,1.13
2023-04-02T17:56:00.301Z,1.10
2023-04-02T17:58:51.798Z,1.37
2023-04-02T18:01:50.652Z,1.30
2023-04-02T18:04:17.514Z,1.40
2023-04-02T18:07:02.889Z,1.97
2023-04-02T18:09:47.054Z,1.97
2023-04-02T18:12:32.541Z,2.17
2023-04-02T18:15:25.497Z,2.87
2023-04-02T18:18:19.821Z,3.27
2023-04-02T18:21:31.141Z,2.97
2023-04-02T18:24:27.081Z,3.90
2023-04-02T18:27:17.950Z,3.93
2023-04-02T18:30:09.235Z,3.03
2023-04-02T18:33:01.155Z,2.07
2023-04-02T18:35:34.817Z,2.10
2023-04-02T18:38:07.801Z,2.47
2023-04-02T18:40:53.824Z,1.93
2023-04-02T18:43:38.244Z,1.20
2023-04-02T18:46:43.740Z,2.10
2023-04-02T18:49:19.538Z,1.30
2023-04-02T18:51:51.977Z,1.97
2023-04-02T18:54:25.313Z,2.67
2023-04-02T18:56:52.162Z,1.97
2023-04-02T18:59:37.011Z,1.00
2023-04-02T19:02:42.948Z,1.47
2023-04-02T19:05:28.648Z,1.30
2023-04-02T19:08:13.481Z,1.50
2023-04-02T19:10:45.866Z,1.77
2023-04-02T19:13:15.851Z,1.70
2023-04-02T19:16:03.317Z,1.67
2023-04-02T19:18:51.119Z,2.80
2023-04-02T19:21:26.252Z,1.30
2023-04-02T19:24:24.845Z,3.00
2023-04-02T19:27:16.729Z,1.57
2023-04-02T19:30:18.292Z,1.73
2023-04-02T19:33:23.956Z,2.57
2023-04-02T19:35:59.295Z,1.90
2023-04-02T19:38:47.493Z,1.50
2023-04-02T19:41:39.261Z,2.70
2023-04-02T19:44:11.270Z,2.50
2023-04-02T19:46:39.270Z,1.10
2023-04-02T19:49:14.580Z,1.57
2023-04-02T19:51:41.342Z,2.10
2023-04-02T19:54:08.700Z,2.83
2023-04-02T19:56:35.616Z,1.90
2023-04-02T19:59:07.732Z,1.57
2023-04-02T20:01:43.947Z,2.07
2023-04-02T20:04:10.975Z,2.33
2023-04-02T20:06:37.867Z,2.43
2023-04-02T20:09:04.722Z,4.40
2023-04-02T20:11:31.511Z,3.20
2023-04-02T20:13:58.195Z,3.83
2023-04-02T20:16:24.952Z,3.60
2023-04-02T20:18:51.900Z,5.70
2023-04-02T20:21:18.870Z,5.63
2023-04-02T20:23:45.590Z,2.27
2023-04-02T20:26:12.706Z,2.07
2023-04-02T20:28:39.771Z,2.37
2023-04-02T20:31:10.687Z,4.10
2023-04-02T20:33:37.791Z,2.70
2023-04-02T20:36:07.917Z,2.50
2023-04-02T20:38:35.781Z,2.20
2023-04-02T20:41:03.983Z,3.20
2023-04-02T20:43:30.830Z,2.17
2023-04-02T20:45:59.502Z,4.23
2023-04-02T20:48:28.364Z,6.03
2023-04-02T20:50:55.115Z,4.83
2023-04-02T20:53:22.054Z,4.07
2023-04-02T20:55:49.446Z,1.97
2023-04-02T20:58:17.844Z,3.87
2023-04-02T21:00:45.289Z,5.07
2023-04-02T21:03:12.512Z,3.10
2023-04-02T21:05:47.061Z,3.20
2023-04-02T21:08:14.523Z,2.20
2023-04-02T21:10:41.258Z,1.90
2023-04-02T21:13:08.055Z,3.67
2023-04-02T21:15:35.187Z,4.77
2023-04-02T21:18:02.293Z,4.30
2023-04-02T21:20:29.281Z,2.60
2023-04-02T21:22:56.076Z,4.73
2023-04-02T21:25:22.791Z,2.53
2023-04-02T21:27:49.476Z,2.83
2023-04-02T21:30:16.413Z,2.67
2023-04-02T21:32:43.145Z,3.53
2023-04-02T21:35:09.945Z,2.60
2023-04-02T21:37:36.992Z,4.33
2023-04-02T21:40:04.050Z,8.87
2023-04-02T21:42:31.213Z,3.30
2023-04-02T21:44:57.999Z,6.47
2023-04-02T21:47:24.957Z,2.27
2023-04-02T21:49:51.660Z,6.00
2023-04-02T21:52:18.368Z,3.10
2023-04-02T21:54:45.305Z,6.43
2023-04-02T21:57:12.115Z,3.00
2023-04-02T21:59:38.900Z,3.00
2023-04-02T22:02:06.813Z,2.50
2023-04-02T22:04:33.682Z,3.83
2023-04-02T22:07:00.788Z,2.87
2023-04-02T22:09:29.482Z,3.03
2023-04-02T22:12:02.240Z,2.43
2023-04-02T22:14:29.626Z,4.00
2023-04-02T22:16:58.633Z,4.37
2023-04-02T22:19:26.331Z,4.43
2023-04-02T22:21:53.195Z,5.73
2023-04-02T22:24:22.037Z,2.40
2023-04-02T22:26:49.450Z,10.80
2023-04-02T22:29:16.752Z,3.13
2023-04-02T22:31:43.970Z,3.33
2023-04-02T22:34:10.977Z,5.03
2023-04-02T22:36:37.720Z,3.23
2023-04-02T22:39:06.980Z,2.93
2023-04-02T22:41:33.895Z,5.40
2023-04-02T22:44:01.858Z,4.10
2023-04-02T22:46:29.960Z,4.60
2023-04-02T22:48:56.870Z,2.63
2023-04-02T22:51:25.963Z,6.73
2023-04-02T22:53:54.648Z,2.57
2023-04-02T22:56:24.756Z,4.33
2023-04-02T22:58:51.514Z,2.07
2023-04-02T23:01:25.068Z,2.57
2023-04-02T23:03:54.039Z,3.93
2023-04-02T23:06:21.353Z,3.60
2023-04-02T23:08:48.364Z,2.60
2023-04-02T23:11:23.820Z,2.10
2023-04-02T23:13:52.795Z,2.83
2023-04-02T23:16:21.119Z,2.50
2023-04-02T23:18:49.344Z,2.47
2023-04-02T23:21:17.550Z,2.77
2023-04-02T23:23:45.319Z,3.63
2023-04-02T23:26:23.980Z,5.83
2023-04-02T23:28:51.083Z,5.37
2023-04-02T23:31:20.936Z,3.73
2023-04-02T23:33:48.101Z,2.27
2023-04-02T23:36:22.165Z,2.33
2023-04-02T23:38:51.701Z,2.97
2023-04-02T23:41:18.538Z,3.40
2023-04-02T23:43:45.324Z,2.90
2023-04-02T23:46:12.241Z,4.77
2023-04-02T23:48:39.420Z,5.27
2023-04-02T23:51:06.909Z,3.20
2023-04-02T23:53:34.733Z,3.77
2023-04-02T23:56:01.462Z,3.90
2023-04-02T23:58:28.324Z,2.03
